Time;durP1;ratioP1;P1;durP2;ratioP2;P2;SDS_P1;SDS_P2;PMS_P1;PMS_P2;Temp;Humidity;BMP_temperature;BMP_pressure;BME280_temperature;BME280_humidity;BME280_pressure;Samples;Min_cycle;Max_cycle;Signal;HPM_P1;HPM_P2
2024/04/18 00:00:49;;;;;;;11.15;8.05;;;8.10;99.90;;;;;;5448468;26;20263;-73
2024/04/18 00:03:15;;;;;;;9.27;7.65;;;8.10;99.90;;;;;;5435038;26;20277;-73
2024/04/18 00:05:41;;;;;;;10.65;9.55;;;8.10;99.90;;;;;;5432457;26;20233;-73
2024/04/18 00:08:07;;;;;;;10.50;9.27;;;8.10;99.90;;;;;;5388213;26;20256;-73
2024/04/18 00:10:33;;;;;;;11.07;9.43;;;8.10;99.90;;;;;;5448079;26;20269;-73
2024/04/18 00:12:59;;;;;;;10.48;8.77;;;8.00;99.90;;;;;;5448019;26;20229;-73
2024/04/18 00:15:26;;;;;;;10.98;9.88;;;8.00;99.90;;;;;;5449067;26;20600;-73
2024/04/18 00:17:55;;;;;;;11.10;9.45;;;8.10;99.90;;;;;;5447370;26;20270;-73
2024/04/18 00:20:22;;;;;;;10.10;8.90;;;8.00;99.90;;;;;;5410982;26;20230;-73
2024/04/18 00:22:48;;;;;;;9.68;8.60;;;8.00;99.90;;;;;;5442115;26;20272;-72
2024/04/18 00:25:14;;;;;;;11.27;9.27;;;8.00;99.90;;;;;;5441607;26;20278;-73
2024/04/18 00:27:55;;;;;;;10.93;9.80;;;8.00;99.90;;;;;;5424802;26;20790;-73
2024/04/18 00:30:40;;;;;;;10.73;9.13;;;8.00;99.90;;;;;;5447754;26;20233;-74
2024/04/18 00:33:07;;;;;;;11.05;9.00;;;8.00;99.90;;;;;;5449285;26;20218;-74
2024/04/18 00:35:39;;;;;;;10.40;7.80;;;8.00;99.90;;;;;;5449619;26;20229;-73
2024/04/18 00:38:13;;;;;;;8.00;7.15;;;8.00;99.90;;;;;;5434059;26;20318;-73
2024/04/18 00:40:43;;;;;;;8.32;7.47;;;7.90;99.90;;;;;;5449558;26;20233;-73
2024/04/18 00:43:19;;;;;;;11.27;9.15;;;7.90;99.90;;;;;;5445260;26;20357;-73
2024/04/18 00:45:51;;;;;;;10.23;8.13;;;7.90;99.90;;;;;;5445535;26;20272;-73
2024/04/18 00:48:21;;;;;;;9.45;7.80;;;7.90;99.90;;;;;;5435259;26;20245;-73
2024/04/18 00:50:52;;;;;;;11.50;9.20;;;7.90;99.90;;;;;;5448549;26;20234;-73
2024/04/18 00:53:18;;;;;;;10.10;8.90;;;7.90;99.90;;;;;;5446963;26;20230;-73
2024/04/18 00:55:49;;;;;;;10.27;8.10;;;7.80;99.90;;;;;;5443659;26;20230;-74
2024/04/18 00:58:16;;;;;;;9.48;8.40;;;7.80;99.90;;;;;;5448963;26;20248;-73
2024/04/18 01:00:43;;;;;;;11.35;9.70;;;7.80;99.90;;;;;;5434234;26;20277;-73
2024/04/18 01:03:28;;;;;;;9.10;7.93;;;7.80;99.90;;;;;;5446687;26;20223;-74
2024/04/18 01:06:08;;;;;;;11.55;9.30;;;7.80;99.90;;;;;;5475608;26;20330;-73
2024/04/18 01:08:53;;;;;;;11.48;8.45;;;7.80;99.90;;;;;;5446202;26;20257;-74
2024/04/18 01:11:30;;;;;;;10.15;9.15;;;7.80;99.90;;;;;;5450569;26;20229;-74
2024/04/18 01:13:56;;;;;;;10.32;9.10;;;7.90;99.90;;;;;;5451443;26;20226;-74
2024/04/18 01:16:23;;;;;;;10.13;8.68;;;7.90;99.90;;;;;;5480894;26;20300;-74
2024/04/18 01:18:49;;;;;;;9.05;8.10;;;7.90;99.90;;;;;;5419982;26;20287;-74
2024/04/18 01:21:16;;;;;;;10.45;9.10;;;7.90;99.90;;;;;;5452511;26;20276;-74
2024/04/18 01:23:42;;;;;;;9.35;8.35;;;7.90;99.90;;;;;;5480536;26;20229;-74
2024/04/18 01:26:12;;;;;;;11.82;9.82;;;7.90;99.90;;;;;;5451872;26;20294;-74
2024/04/18 01:28:38;;;;;;;11.20;9.43;;;7.90;99.90;;;;;;5451667;26;20891;-74
2024/04/18 01:31:04;;;;;;;12.45;8.95;;;7.90;99.90;;;;;;5451946;26;20307;-74
2024/04/18 01:33:31;;;;;;;11.40;8.68;;;7.90;99.90;;;;;;5451695;26;20248;-74
2024/04/18 01:35:57;;;;;;;12.95;8.70;;;8.00;99.90;;;;;;5449452;26;20254;-74
2024/04/18 01:38:24;;;;;;;11.95;8.85;;;8.00;99.90;;;;;;5441343;26;20273;-74
2024/04/18 01:40:50;;;;;;;11.35;8.80;;;8.00;99.90;;;;;;5444018;26;20284;-74
2024/04/18 01:43:35;;;;;;;11.02;9.18;;;8.00;99.90;;;;;;5449564;26;20331;-73
2024/04/18 01:46:30;;;;;;;10.00;7.88;;;8.00;99.90;;;;;;5423166;26;20234;-74
2024/04/18 01:48:59;;;;;;;7.72;6.97;;;8.10;99.90;;;;;;5446656;26;20237;-74
2024/04/18 01:51:44;;;;;;;9.93;8.80;;;8.10;99.90;;;;;;5451849;26;20272;-74
2024/04/18 01:54:28;;;;;;;12.48;9.57;;;8.10;99.90;;;;;;5449773;26;20260;-74
2024/04/18 01:56:55;;;;;;;11.00;9.50;;;8.10;99.90;;;;;;5451974;26;20237;-74
2024/04/18 01:59:21;;;;;;;11.98;9.50;;;8.10;99.90;;;;;;5450438;26;20221;-74
2024/04/18 02:01:48;;;;;;;10.40;8.60;;;8.10;99.90;;;;;;5451981;26;20277;-74
2024/04/18 02:04:14;;;;;;;12.35;10.27;;;8.10;99.90;;;;;;5452000;26;20230;-74
2024/04/18 02:06:40;;;;;;;11.30;8.73;;;8.10;99.90;;;;;;5451589;26;20229;-73
2024/04/18 02:09:22;;;;;;;12.32;10.23;;;8.10;99.90;;;;;;5467273;26;20230;-73
2024/04/18 02:11:51;;;;;;;12.70;10.60;;;8.10;99.90;;;;;;5454990;26;20281;-74
2024/04/18 02:14:37;;;;;;;11.63;10.05;;;8.00;99.90;;;;;;5450423;26;20272;-74
2024/04/18 02:17:03;;;;;;;13.45;10.85;;;8.00;99.90;;;;;;5445901;26;20221;-74
2024/04/18 02:19:29;;;;;;;13.43;10.98;;;7.90;99.90;;;;;;5448247;26;20801;-74
2024/04/18 02:22:19;;;;;;;10.85;9.70;;;7.90;99.90;;;;;;5450615;26;20637;-74
2024/04/18 02:25:10;;;;;;;13.45;10.70;;;7.80;99.90;;;;;;5447855;26;20448;-74
2024/04/18 02:27:37;;;;;;;16.17;11.85;;;7.70;99.90;;;;;;5449835;26;20727;-74
2024/04/18 02:30:22;;;;;;;10.50;9.40;;;7.70;99.90;;;;;;5427423;26;20713;-74
2024/04/18 02:32:48;;;;;;;14.13;10.65;;;7.60;99.90;;;;;;5447497;26;20727;-74
2024/04/18 02:35:14;;;;;;;12.32;10.95;;;7.50;99.90;;;;;;5451017;26;20285;-74
2024/04/18 02:37:57;;;;;;;11.60;10.30;;;7.50;99.90;;;;;;5473869;26;20259;-74
2024/04/18 02:40:23;;;;;;;14.38;10.93;;;7.50;99.90;;;;;;5408318;26;20314;-74
2024/04/18 02:42:59;;;;;;;13.52;12.07;;;7.40;99.90;;;;;;5447272;26;20237;-73
2024/04/18 02:45:31;;;;;;;13.95;12.20;;;7.40;99.90;;;;;;5447717;26;20333;-74
2024/04/18 02:48:17;;;;;;;17.88;11.95;;;7.40;99.90;;;;;;5449041;26;20319;-74
2024/04/18 02:50:43;;;;;;;11.70;10.48;;;7.30;99.90;;;;;;5433644;26;20614;-74
2024/04/18 02:53:09;;;;;;;15.82;12.07;;;7.40;99.90;;;;;;5449178;26;20273;-74
2024/04/18 02:55:55;;;;;;;17.35;13.23;;;7.30;99.90;;;;;;5445195;26;20273;-74
2024/04/18 02:58:31;;;;;;;18.00;13.35;;;7.40;99.90;;;;;;5440636;26;20275;-74
2024/04/18 03:01:15;;;;;;;12.15;10.65;;;7.40;99.90;;;;;;5451665;26;20225;-74
2024/04/18 03:03:41;;;;;;;14.98;11.52;;;7.40;99.90;;;;;;5448262;26;20282;-74
2024/04/18 03:06:07;;;;;;;14.40;11.95;;;7.40;99.90;;;;;;5444155;26;20285;-74
2024/04/18 03:08:33;;;;;;;17.00;12.68;;;7.40;99.90;;;;;;5435393;26;20269;-74
2024/04/18 03:11:15;;;;;;;16.67;11.95;;;7.40;99.90;;;;;;5440392;26;20737;-74
2024/04/18 03:14:01;;;;;;;14.18;11.25;;;7.40;99.90;;;;;;5448483;26;20275;-74
2024/04/18 03:16:29;;;;;;;15.55;12.70;;;7.40;99.90;;;;;;5450630;26;20648;-74
2024/04/18 03:19:15;;;;;;;17.30;13.48;;;7.40;99.90;;;;;;5448682;26;20326;-74
2024/04/18 03:21:51;;;;;;;15.10;12.10;;;7.40;99.90;;;;;;5429822;26;20229;-74
2024/04/18 03:24:18;;;;;;;15.88;14.00;;;7.40;99.90;;;;;;5450044;26;20229;-74
2024/04/18 03:26:48;;;;;;;15.90;12.15;;;7.30;99.90;;;;;;5451210;26;20277;-74
2024/04/18 03:29:14;;;;;;;16.83;12.75;;;7.30;99.90;;;;;;5450563;26;20226;-74
2024/04/18 03:31:57;;;;;;;14.85;11.30;;;7.30;99.90;;;;;;5449204;26;20587;-74
2024/04/18 03:34:42;;;;;;;13.13;11.65;;;7.30;99.90;;;;;;5439708;26;20280;-74
2024/04/18 03:37:08;;;;;;;17.55;13.75;;;7.30;99.90;;;;;;5479318;26;20579;-74
2024/04/18 03:39:34;;;;;;;21.48;16.17;;;7.30;99.90;;;;;;5450818;26;20268;-74
2024/04/18 03:42:00;;;;;;;19.58;14.98;;;7.30;99.90;;;;;;5447558;26;20256;-74
2024/04/18 03:44:47;;;;;;;15.07;11.57;;;7.30;99.90;;;;;;5434307;26;20359;-74
2024/04/18 03:47:13;;;;;;;15.70;13.02;;;7.40;99.90;;;;;;5432927;26;22988;-74
2024/04/18 03:49:59;;;;;;;19.20;14.20;;;7.40;99.90;;;;;;5438813;26;20241;-74
2024/04/18 03:52:36;;;;;;;16.50;14.32;;;7.40;99.90;;;;;;5451656;26;20295;-74
2024/04/18 03:55:21;;;;;;;18.15;12.57;;;7.50;99.90;;;;;;5443476;26;20249;-74
2024/04/18 03:57:49;;;;;;;18.25;13.43;;;7.50;99.90;;;;;;5437090;26;20238;-74
2024/04/18 04:00:15;;;;;;;17.02;13.45;;;7.50;99.90;;;;;;5448978;26;21145;-74
2024/04/18 04:02:41;;;;;;;19.50;15.68;;;7.50;99.90;;;;;;5448659;26;20233;-74
2024/04/18 04:05:07;;;;;;;17.77;13.65;;;7.60;99.90;;;;;;5447949;26;20245;-74
2024/04/18 04:07:33;;;;;;;17.55;14.38;;;7.60;99.90;;;;;;5440649;26;20555;-74
2024/04/18 04:10:00;;;;;;;20.75;14.38;;;7.70;99.90;;;;;;5412981;26;20233;-74
2024/04/18 04:12:27;;;;;;;17.63;14.82;;;7.70;99.90;;;;;;5442324;26;20242;-74
2024/04/18 04:15:09;;;;;;;16.13;13.48;;;7.80;99.90;;;;;;5423613;26;20672;-74
2024/04/18 04:17:38;;;;;;;16.73;13.77;;;7.80;99.90;;;;;;5448374;26;20238;-74
2024/04/18 04:20:07;;;;;;;17.27;15.02;;;7.80;99.90;;;;;;5445633;26;20229;-74
2024/04/18 04:22:33;;;;;;;16.05;13.10;;;7.90;99.90;;;;;;5426879;26;20620;-74
2024/04/18 04:25:19;;;;;;;18.83;14.50;;;7.90;99.90;;;;;;5446317;26;20337;-74
2024/04/18 04:27:45;;;;;;;17.70;12.93;;;7.90;99.90;;;;;;5438172;26;20653;-74
2024/04/18 04:30:11;;;;;;;14.38;12.88;;;7.90;99.90;;;;;;5467227;26;20296;-74
2024/04/18 04:32:37;;;;;;;14.75;12.35;;;8.00;99.90;;;;;;5450349;26;20226;-74
2024/04/18 04:35:23;;;;;;;15.45;11.98;;;8.00;99.90;;;;;;5437267;26;20229;-74
2024/04/18 04:37:49;;;;;;;14.70;12.02;;;8.00;99.90;;;;;;5435735;26;20289;-74
2024/04/18 04:40:15;;;;;;;16.40;13.07;;;8.00;99.90;;;;;;5433991;26;20272;-74
2024/04/18 04:42:42;;;;;;;18.20;12.80;;;8.00;99.90;;;;;;5450316;26;20279;-74
2024/04/18 04:45:08;;;;;;;15.77;12.60;;;8.00;99.90;;;;;;5449904;26;20296;-74
2024/04/18 04:47:34;;;;;;;12.95;10.50;;;8.10;99.90;;;;;;5452500;26;20687;-74
2024/04/18 04:50:22;;;;;;;13.48;11.45;;;8.10;99.90;;;;;;5449672;26;20230;-74
2024/04/18 04:53:08;;;;;;;14.38;11.68;;;8.10;99.90;;;;;;5434522;26;20223;-75
2024/04/18 04:55:55;;;;;;;13.50;11.50;;;8.10;99.90;;;;;;5415335;26;20238;-74
2024/04/18 04:58:21;;;;;;;14.35;12.30;;;8.10;99.90;;;;;;5443160;26;20276;-74
2024/04/18 05:00:48;;;;;;;16.10;11.68;;;8.20;99.90;;;;;;5436952;26;20611;-74
2024/04/18 05:03:34;;;;;;;14.40;11.43;;;8.20;99.90;;;;;;5423251;26;20328;-74
2024/04/18 05:06:20;;;;;;;10.80;9.65;;;8.20;99.90;;;;;;5444952;26;20571;-74
2024/04/18 05:09:08;;;;;;;12.50;11.20;;;8.20;99.90;;;;;;5432496;26;20223;-74
2024/04/18 05:11:34;;;;;;;11.23;9.80;;;8.20;99.90;;;;;;5448583;26;20259;-74
2024/04/18 05:14:00;;;;;;;14.45;10.52;;;8.20;99.90;;;;;;5428829;26;20234;-74
2024/04/18 05:16:45;;;;;;;10.68;9.38;;;8.20;99.90;;;;;;5440326;26;20286;-74
2024/04/18 05:19:11;;;;;;;11.52;10.15;;;8.20;99.90;;;;;;5448389;26;20273;-74
2024/04/18 05:21:38;;;;;;;10.35;9.25;;;8.20;99.90;;;;;;5449016;26;20288;-74
2024/04/18 05:24:23;;;;;;;13.07;9.10;;;8.30;99.90;;;;;;5446804;26;20284;-74
2024/04/18 05:26:49;;;;;;;12.55;9.15;;;8.30;99.90;;;;;;5452853;26;20264;-74
2024/04/18 05:32:02;;;;;;;10.50;8.90;;;8.30;99.90;;;;;;5449594;26;20302;-74
2024/04/18 05:34:30;;;;;;;9.18;8.27;;;8.30;99.90;;;;;;5433474;26;20233;-74
2024/04/18 05:36:56;;;;;;;9.90;8.90;;;8.30;99.90;;;;;;5434527;26;20566;-74
2024/04/18 05:39:22;;;;;;;11.70;9.93;;;8.30;99.90;;;;;;5448824;26;20596;-74
2024/04/18 05:41:48;;;;;;;11.27;10.10;;;8.30;99.90;;;;;;5437598;26;20270;-74
2024/04/18 05:44:41;;;;;;;9.30;7.95;;;8.30;99.90;;;;;;5420620;26;20336;-73
2024/04/18 05:47:07;;;;;;;10.57;8.30;;;8.30;99.90;;;;;;5438194;26;20234;-74
2024/04/18 05:49:34;;;;;;;10.35;8.43;;;8.30;99.90;;;;;;5480060;26;20230;-74
2024/04/18 05:52:01;;;;;;;9.70;8.63;;;8.40;99.90;;;;;;5452138;26;20332;-74
2024/04/18 05:54:31;;;;;;;11.23;9.07;;;8.40;99.90;;;;;;5446651;26;20300;-75
2024/04/18 05:57:07;;;;;;;9.02;8.13;;;8.50;99.90;;;;;;5434336;26;20237;-74
2024/04/18 05:59:52;;;;;;;9.30;7.88;;;8.60;99.90;;;;;;5444406;26;20238;-74
2024/04/18 06:02:18;;;;;;;9.73;8.65;;;8.70;99.90;;;;;;5446602;26;20627;-75
2024/04/18 06:04:44;;;;;;;11.30;10.10;;;8.80;99.90;;;;;;5435046;26;20268;-75
2024/04/18 06:07:30;;;;;;;9.65;8.65;;;9.00;99.90;;;;;;5473806;26;20314;-74
2024/04/18 06:09:57;;;;;;;10.27;9.23;;;9.20;99.90;;;;;;5434908;26;20226;-74
2024/04/18 06:12:23;;;;;;;10.55;8.27;;;9.30;99.90;;;;;;5434584;26;20273;-74
2024/04/18 06:14:49;;;;;;;10.20;7.55;;;9.40;99.90;;;;;;5436516;26;20345;-74
2024/04/18 06:17:16;;;;;;;9.20;7.30;;;9.50;99.90;;;;;;5448678;26;20284;-74
2024/04/18 06:19:52;;;;;;;10.32;9.20;;;9.50;99.90;;;;;;5451838;26;20258;-74
2024/04/18 06:22:30;;;;;;;7.47;6.15;;;9.60;99.90;;;;;;5417654;26;20766;-74
2024/04/18 06:25:36;;;;;;;11.13;8.10;;;9.60;99.90;;;;;;5446644;26;20276;-74
2024/04/18 06:28:05;;;;;;;10.23;6.75;;;9.70;99.90;;;;;;5452904;26;20255;-74
2024/04/18 06:30:31;;;;;;;10.48;7.53;;;9.90;99.90;;;;;;5436483;26;20293;-74
2024/04/18 06:32:57;;;;;;;8.68;7.05;;;10.20;99.90;;;;;;5463747;26;20566;-74
2024/04/18 06:35:23;;;;;;;10.30;7.50;;;10.70;99.90;;;;;;5476562;26;20277;-74
2024/04/18 06:37:49;;;;;;;11.07;7.43;;;11.40;99.90;;;;;;5443236;26;20217;-74
2024/04/18 06:40:19;;;;;;;9.07;8.17;;;11.90;99.90;;;;;;5440633;26;20230;-74
2024/04/18 06:42:45;;;;;;;10.13;7.43;;;12.30;99.90;;;;;;5437176;26;20532;-74
2024/04/18 06:45:12;;;;;;;9.73;7.47;;;12.80;99.90;;;;;;5451056;26;20567;-74
2024/04/18 06:47:38;;;;;;;11.07;7.27;;;13.00;99.90;;;;;;5459495;26;20655;-74
2024/04/18 06:50:07;;;;;;;8.37;5.80;;;13.20;99.90;;;;;;5449252;26;20535;-73
2024/04/18 06:52:34;;;;;;;7.27;5.50;;;13.50;99.90;;;;;;5469292;26;20927;-73
2024/04/18 06:55:00;;;;;;;7.70;4.97;;;13.60;99.90;;;;;;5450410;26;20600;-73
2024/04/18 06:57:42;;;;;;;9.30;4.37;;;13.60;99.90;;;;;;5439529;26;20597;-73
2024/04/18 07:00:10;;;;;;;5.10;3.30;;;13.60;99.90;;;;;;5457708;26;21097;-73
2024/04/18 07:02:37;;;;;;;6.90;4.90;;;13.70;99.90;;;;;;5466517;26;20594;-73
2024/04/18 07:05:22;;;;;;;5.30;3.20;;;14.30;99.90;;;;;;5447741;26;20558;-73
2024/04/18 07:07:57;;;;;;;3.77;3.37;;;15.20;99.90;;;;;;5450464;26;20543;-73
2024/04/18 07:10:30;;;;;;;4.10;1.93;;;16.10;99.90;;;;;;5463576;26;20908;-73
2024/04/18 07:12:56;;;;;;;4.63;2.40;;;17.10;99.90;;;;;;5450549;26;20691;-74
2024/04/18 07:15:22;;;;;;;4.23;2.70;;;18.10;99.90;;;;;;5447312;26;20560;-73
2024/04/18 07:18:09;;;;;;;3.80;2.03;;;18.70;99.90;;;;;;5445046;26;20559;-73
2024/04/18 07:20:35;;;;;;;6.20;2.97;;;19.00;99.90;;;;;;5415965;26;20613;-73
2024/04/18 07:23:04;;;;;;;4.53;2.20;;;19.00;99.90;;;;;;5476081;26;20531;-73
2024/04/18 07:25:31;;;;;;;5.70;2.23;;;19.20;99.90;;;;;;5445179;26;20579;-74
2024/04/18 07:27:57;;;;;;;4.00;1.90;;;19.30;99.90;;;;;;5476686;26;20572;-73
2024/04/18 07:30:23;;;;;;;3.93;1.63;;;19.50;99.90;;;;;;5448465;26;20539;-73
2024/04/18 07:32:51;;;;;;;6.80;1.87;;;20.10;99.90;;;;;;5445595;26;20874;-73
2024/04/18 07:35:37;;;;;;;11.73;9.67;;;20.80;99.90;;;;;;5436072;26;20567;-73
2024/04/18 07:38:05;;;;;;;5.13;2.60;;;21.60;99.90;;;;;;5448212;26;20611;-73
2024/04/18 07:40:31;;;;;;;4.47;2.10;;;22.30;99.90;;;;;;5475829;26;20532;-73
2024/04/18 07:42:57;;;;;;;2.60;1.30;;;22.90;99.90;;;;;;5442928;26;20622;-73
2024/04/18 07:45:23;;;;;;;5.30;1.73;;;23.40;99.90;;;;;;5393709;26;20632;-71
2024/04/18 07:47:50;;;;;;;6.93;1.70;;;23.80;99.90;;;;;;5438455;26;20524;-71
2024/04/18 07:50:16;;;;;;;6.80;1.67;;;24.20;99.90;;;;;;5418690;26;20543;-71
2024/04/18 07:52:42;;;;;;;5.03;1.47;;;24.50;99.90;;;;;;5478897;26;20519;-73
2024/04/18 07:55:08;;;;;;;3.50;1.70;;;24.80;99.90;;;;;;5445441;26;20564;-72
2024/04/18 07:57:34;;;;;;;2.90;1.53;;;25.00;99.90;;;;;;5450132;26;20523;-71
2024/04/18 08:00:00;;;;;;;6.13;1.90;;;24.80;99.90;;;;;;5450135;26;20953;-71
2024/04/18 08:02:27;;;;;;;2.70;1.40;;;24.90;99.90;;;;;;5450085;26;20543;-71
2024/04/18 08:04:53;;;;;;;5.33;1.97;;;25.10;99.90;;;;;;5449631;26;20630;-71
2024/04/18 08:07:19;;;;;;;3.77;1.37;;;25.30;99.90;;;;;;5449207;26;20549;-71
2024/04/18 08:09:45;;;;;;;2.77;1.07;;;25.60;99.90;;;;;;5449785;26;20592;-72
2024/04/18 08:12:11;;;;;;;3.17;1.10;;;25.60;99.90;;;;;;5440700;26;20621;-72
2024/04/18 08:14:37;;;;;;;2.27;0.97;;;25.30;99.90;;;;;;5449214;26;20578;-72
2024/04/18 08:17:03;;;;;;;2.67;1.30;;;25.30;99.90;;;;;;5477555;26;20674;-73
2024/04/18 08:19:29;;;;;;;6.70;1.67;;;25.50;99.90;;;;;;5449563;26;20632;-72
2024/04/18 08:21:55;;;;;;;2.93;0.90;;;25.60;99.90;;;;;;5450354;26;20970;-72
2024/04/18 08:24:27;;;;;;;2.70;1.13;;;25.50;99.90;;;;;;5448134;26;20575;-72
2024/04/18 08:27:05;;;;;;;3.80;1.40;;;25.10;99.90;;;;;;5419265;26;20544;-72
2024/04/18 08:29:31;;;;;;;2.50;1.00;;;24.70;99.90;;;;;;5388715;26;20600;-72
2024/04/18 08:31:58;;;;;;;3.30;1.00;;;24.20;99.90;;;;;;5450426;26;20531;-72
2024/04/18 08:34:24;;;;;;;5.73;1.07;;;23.80;99.90;;;;;;5435476;26;20947;-72
2024/04/18 08:36:50;;;;;;;3.20;1.00;;;23.80;99.90;;;;;;5428689;26;20581;-72
2024/04/18 08:39:16;;;;;;;3.80;1.10;;;24.20;99.90;;;;;;5446567;26;20960;-72
2024/04/18 08:41:43;;;;;;;3.07;1.03;;;24.60;99.90;;;;;;5469979;26;20575;-72
2024/04/18 08:44:10;;;;;;;2.20;1.00;;;24.90;99.90;;;;;;5442209;26;20623;-72
2024/04/18 08:46:37;;;;;;;2.90;1.10;;;25.20;99.90;;;;;;5449336;26;20608;-72
2024/04/18 08:49:06;;;;;;;5.03;1.67;;;25.30;99.90;;;;;;5478080;26;20630;-72
2024/04/18 08:51:37;;;;;;;3.03;1.00;;;25.10;99.90;;;;;;5447384;26;20599;-72
2024/04/18 08:54:04;;;;;;;3.77;0.90;;;24.80;97.60;;;;;;5462279;26;20616;-72
2024/04/18 08:56:32;;;;;;;4.33;0.90;;;24.30;96.70;;;;;;5436718;26;20590;-72
2024/04/18 08:58:59;;;;;;;4.57;1.63;;;23.70;96.00;;;;;;5437899;26;20527;-72
2024/04/18 09:01:26;;;;;;;3.57;0.90;;;23.40;96.50;;;;;;5448669;26;20540;-72
2024/04/18 09:03:59;;;;;;;3.00;1.00;;;23.10;97.30;;;;;;5447038;26;20551;-72
2024/04/18 09:06:25;;;;;;;2.03;1.00;;;22.80;96.00;;;;;;5448721;26;20576;-72
2024/04/18 09:09:00;;;;;;;2.80;1.20;;;22.40;96.10;;;;;;5448979;26;20560;-72
2024/04/18 09:11:27;;;;;;;3.80;1.00;;;22.00;95.60;;;;;;5448999;26;20575;-72
2024/04/18 09:13:53;;;;;;;3.10;1.60;;;21.60;95.90;;;;;;5446612;26;21168;-71
2024/04/18 09:16:19;;;;;;;2.97;0.90;;;21.60;97.70;;;;;;5446231;26;20548;-72
2024/04/18 09:18:45;;;;;;;2.50;0.70;;;21.90;98.90;;;;;;5448749;26;20952;-72
2024/04/18 09:21:12;;;;;;;3.90;0.90;;;21.80;97.60;;;;;;5448564;26;21099;-72
2024/04/18 09:23:40;;;;;;;3.93;2.00;;;21.50;96.20;;;;;;5444118;26;20521;-72
2024/04/18 09:26:06;;;;;;;3.70;1.10;;;21.10;96.10;;;;;;5445889;26;20606;-72
2024/04/18 09:28:37;;;;;;;2.00;0.80;;;20.90;95.50;;;;;;5452032;26;20536;-71
2024/04/18 09:31:04;;;;;;;2.57;0.87;;;20.60;95.00;;;;;;5450581;26;20528;-72
2024/04/18 09:33:33;;;;;;;3.50;0.70;;;20.60;96.70;;;;;;5451464;26;21090;-73
2024/04/18 09:36:01;;;;;;;3.00;1.23;;;20.80;98.30;;;;;;5452237;26;20527;-71
2024/04/18 09:38:34;;;;;;;2.77;0.90;;;21.30;99.30;;;;;;5420333;26;20535;-72
2024/04/18 09:41:07;;;;;;;3.20;0.90;;;21.60;98.90;;;;;;5467144;26;20523;-72
2024/04/18 09:43:38;;;;;;;2.43;0.80;;;21.70;98.60;;;;;;5445562;26;20521;-72
2024/04/18 09:46:09;;;;;;;2.97;0.60;;;22.20;99.90;;;;;;5457066;26;20551;-72
2024/04/18 09:48:35;;;;;;;3.10;0.70;;;22.70;99.90;;;;;;5442491;26;20523;-72
2024/04/18 09:51:03;;;;;;;2.53;0.77;;;22.90;99.10;;;;;;5450805;26;20610;-72
2024/04/18 09:53:30;;;;;;;4.47;0.80;;;22.90;97.70;;;;;;5448474;26;20972;-72
2024/04/18 09:55:58;;;;;;;3.60;0.90;;;22.90;97.60;;;;;;5451976;26;20649;-71
2024/04/18 09:58:27;;;;;;;3.10;0.83;;;22.80;96.70;;;;;;5419412;26;21157;-72
2024/04/18 10:00:55;;;;;;;2.00;0.90;;;22.60;95.50;;;;;;5455940;26;20539;-72
2024/04/18 10:03:21;;;;;;;4.63;1.40;;;22.20;93.60;;;;;;5449306;26;20595;-72
2024/04/18 10:05:51;;;;;;;3.83;0.90;;;21.80;94.00;;;;;;5449509;26;20680;-72
2024/04/18 10:08:24;;;;;;;3.57;0.93;;;21.40;92.00;;;;;;5449886;26;20600;-72
2024/04/18 10:10:51;;;;;;;2.53;0.80;;;20.90;92.00;;;;;;5451913;26;20907;-72
2024/04/18 10:13:22;;;;;;;3.50;0.83;;;20.30;92.50;;;;;;5461776;26;20539;-71
2024/04/18 10:15:49;;;;;;;4.20;1.10;;;19.80;92.70;;;;;;5449995;26;20575;-74
2024/04/18 10:18:16;;;;;;;3.63;1.20;;;19.70;93.90;;;;;;5451484;26;20624;-71
2024/04/18 10:20:44;;;;;;;3.40;0.80;;;19.70;94.60;;;;;;5448835;26;20938;-73
2024/04/18 10:23:14;;;;;;;5.63;0.93;;;19.80;95.00;;;;;;5450182;26;20543;-72
2024/04/18 10:25:40;;;;;;;2.93;0.70;;;19.70;95.10;;;;;;5449800;26;20567;-72
2024/04/18 10:28:29;;;;;;;2.73;0.80;;;19.70;95.00;;;;;;5449851;26;20576;-72
2024/04/18 10:31:03;;;;;;;3.83;0.90;;;19.90;96.00;;;;;;5451632;26;20535;-72
2024/04/18 10:33:29;;;;;;;4.47;1.30;;;20.00;96.00;;;;;;5450631;26;20881;-72
2024/04/18 10:35:55;;;;;;;4.33;1.50;;;19.90;94.90;;;;;;5448876;26;21073;-72
2024/04/18 10:38:25;;;;;;;4.37;1.60;;;19.70;94.40;;;;;;5451332;26;20643;-72
2024/04/18 10:41:05;;;;;;;8.40;1.40;;;19.50;93.70;;;;;;5451519;26;20527;-72
2024/04/18 10:43:34;;;;;;;3.23;2.03;;;19.40;94.60;;;;;;5447006;26;20528;-72
2024/04/18 10:46:01;;;;;;;3.70;1.67;;;19.30;94.80;;;;;;5439761;26;20544;-72
2024/04/18 10:48:27;;;;;;;3.90;1.77;;;19.00;94.20;;;;;;5450993;26;21156;-72
2024/04/18 10:50:54;;;;;;;3.20;1.33;;;18.80;94.30;;;;;;5479767;26;20628;-72
2024/04/18 10:53:20;;;;;;;7.77;2.37;;;18.60;94.10;;;;;;5450538;26;20532;-72
2024/04/18 10:55:47;;;;;;;3.37;1.80;;;18.40;94.10;;;;;;5451005;26;20662;-72
2024/04/18 10:58:16;;;;;;;5.20;1.53;;;18.40;96.20;;;;;;5449210;26;20551;-71
2024/04/18 11:00:43;;;;;;;4.13;1.20;;;18.80;98.60;;;;;;5449505;26;20555;-71
2024/04/18 11:03:10;;;;;;;6.00;1.27;;;19.10;99.90;;;;;;5451352;26;20613;-71
2024/04/18 11:05:40;;;;;;;3.13;1.23;;;19.60;99.30;;;;;;5450433;26;20958;-71
2024/04/18 11:08:19;;;;;;;6.30;1.63;;;19.80;98.50;;;;;;5450977;26;20671;-72
2024/04/18 11:10:45;;;;;;;2.40;1.10;;;20.10;97.70;;;;;;5451052;26;20527;-72
2024/04/18 11:13:13;;;;;;;2.50;1.20;;;20.50;98.40;;;;;;5450813;26;20601;-72
2024/04/18 11:15:40;;;;;;;2.80;0.87;;;20.90;99.10;;;;;;5448629;26;20631;-72
2024/04/18 11:18:06;;;;;;;5.17;1.20;;;21.30;99.40;;;;;;5448898;26;21439;-72
2024/04/18 11:20:34;;;;;;;2.27;1.00;;;21.70;98.80;;;;;;5450737;26;20678;-72
2024/04/18 11:23:02;;;;;;;3.90;1.13;;;22.00;96.50;;;;;;5479411;26;20860;-72
2024/04/18 11:25:28;;;;;;;2.27;1.00;;;22.20;96.10;;;;;;5444717;26;20637;-72
2024/04/18 11:28:05;;;;;;;3.70;1.00;;;22.40;96.30;;;;;;5450651;26;20576;-72
2024/04/18 11:30:31;;;;;;;2.90;1.10;;;22.70;95.90;;;;;;5446491;26;21170;-72
2024/04/18 11:33:01;;;;;;;2.83;0.87;;;23.10;96.90;;;;;;5449044;26;20548;-72
2024/04/18 11:35:27;;;;;;;1.80;0.73;;;23.40;96.60;;;;;;5449986;26;20678;-72
2024/04/18 11:37:55;;;;;;;3.00;0.80;;;23.50;94.90;;;;;;5459780;26;20547;-72
2024/04/18 11:40:21;;;;;;;3.10;1.80;;;23.40;91.60;;;;;;5450678;26;20523;-72
2024/04/18 11:42:47;;;;;;;3.20;0.80;;;23.10;89.20;;;;;;5448674;26;20531;-72
2024/04/18 11:45:13;;;;;;;1.87;0.90;;;22.80;88.60;;;;;;5402768;26;20557;-72
2024/04/18 11:47:39;;;;;;;4.00;1.10;;;22.50;87.50;;;;;;5428625;26;21130;-73
2024/04/18 11:50:06;;;;;;;6.03;0.93;;;22.20;86.60;;;;;;5409715;26;20555;-72
2024/04/18 11:52:33;;;;;;;2.20;0.90;;;22.00;85.20;;;;;;5448313;26;20543;-72
2024/04/18 11:54:59;;;;;;;2.83;1.20;;;21.70;84.10;;;;;;5478282;26;20682;-72
2024/04/18 11:57:37;;;;;;;2.43;0.60;;;21.40;84.70;;;;;;5447085;26;20588;-72
2024/04/18 12:00:04;;;;;;;2.43;0.70;;;21.30;85.60;;;;;;5435380;26;20512;-72
2024/04/18 12:02:31;;;;;;;2.53;0.70;;;21.20;87.10;;;;;;5450250;26;20619;-73
2024/04/18 12:04:57;;;;;;;2.90;0.70;;;21.30;87.60;;;;;;5449823;26;20567;-72
2024/04/18 12:07:23;;;;;;;3.07;1.50;;;21.40;87.50;;;;;;5450298;26;20595;-72
2024/04/18 12:09:53;;;;;;;2.00;1.10;;;21.50;87.90;;;;;;5448597;26;20512;-72
2024/04/18 12:12:24;;;;;;;4.57;2.67;;;21.40;83.60;;;;;;5448504;26;21113;-72
2024/04/18 12:14:50;;;;;;;2.47;1.33;;;21.30;81.40;;;;;;5457036;26;20632;-72
2024/04/18 12:17:28;;;;;;;4.93;1.03;;;21.00;79.30;;;;;;5448384;26;20559;-73
2024/04/18 12:20:15;;;;;;;2.10;0.80;;;20.70;80.00;;;;;;5449659;26;20552;-72
2024/04/18 12:22:41;;;;;;;1.60;0.60;;;20.60;80.90;;;;;;5449618;26;20588;-72
2024/04/18 12:25:17;;;;;;;1.40;0.50;;;20.50;81.00;;;;;;5448030;26;20635;-72
2024/04/18 12:27:44;;;;;;;2.27;0.60;;;20.50;82.70;;;;;;5443850;26;20563;-72
2024/04/18 12:30:29;;;;;;;1.47;0.50;;;20.60;82.20;;;;;;5449640;26;20641;-72
2024/04/18 12:33:14;;;;;;;1.63;0.60;;;20.60;82.80;;;;;;5457300;26;21160;-72
2024/04/18 12:35:40;;;;;;;2.23;0.60;;;20.60;81.80;;;;;;5449214;26;20551;-72
2024/04/18 12:38:06;;;;;;;2.10;0.70;;;20.60;82.70;;;;;;5447813;26;21101;-72
2024/04/18 12:40:42;;;;;;;2.00;0.50;;;20.70;82.90;;;;;;5449449;26;20617;-71
2024/04/18 12:43:11;;;;;;;1.67;0.60;;;20.70;83.20;;;;;;5449592;26;20531;-73
2024/04/18 12:45:54;;;;;;;2.10;0.60;;;20.60;80.80;;;;;;5447602;26;20995;-72
2024/04/18 12:48:40;;;;;;;1.53;0.50;;;20.60;80.40;;;;;;5447420;26;20547;-73
2024/04/18 12:51:07;;;;;;;3.30;0.60;;;20.40;77.30;;;;;;5478163;26;20535;-73
2024/04/18 12:53:42;;;;;;;1.40;0.50;;;20.20;77.10;;;;;;5475628;26;20512;-73
2024/04/18 12:56:08;;;;;;;4.13;0.70;;;20.00;74.70;;;;;;5476769;26;20576;-73
2024/04/18 12:58:34;;;;;;;1.40;0.50;;;19.70;71.80;;;;;;5449550;26;20599;-73
2024/04/18 13:01:08;;;;;;;2.00;0.53;;;19.40;71.30;;;;;;5480077;26;20573;-73
2024/04/18 13:03:37;;;;;;;2.33;0.60;;;19.00;70.40;;;;;;5450117;26;20547;-73
2024/04/18 13:06:25;;;;;;;2.20;0.70;;;18.80;71.80;;;;;;5452688;26;20623;-73